createdAt,value
2019-03-08T00:02:05.699Z,91.93
2019-03-08T00:05:02.493Z,92.10
2019-03-08T00:07:58.953Z,91.84
2019-03-08T00:10:55.036Z,91.70
2019-03-08T00:13:50.475Z,91.89
2019-03-08T00:16:48.030Z,92.28
2019-03-08T00:19:45.484Z,92.60
2019-03-08T00:22:41.975Z,93.12
2019-03-08T00:25:38.382Z,93.75
2019-03-08T00:28:36.003Z,93.94
2019-03-08T00:31:31.753Z,94.44
2019-03-08T00:34:27.173Z,94.67
2019-03-08T00:37:23.768Z,94.99
2019-03-08T00:40:20.384Z,95.42
2019-03-08T00:43:15.847Z,95.60
2019-03-08T00:46:12.338Z,95.63
2019-03-08T00:49:09.042Z,95.61
2019-03-08T00:52:05.813Z,95.55
2019-03-08T00:55:01.203Z,95.18
2019-03-08T00:57:58.966Z,95.19
2019-03-08T01:00:54.450Z,95.04
2019-03-08T01:03:51.034Z,94.35
2019-03-08T01:06:46.408Z,92.80
2019-03-08T01:09:42.431Z,92.75
2019-03-08T01:12:38.818Z,93.51
2019-03-08T01:15:34.270Z,94.35
2019-03-08T01:18:32.106Z,95.02
2019-03-08T01:21:27.766Z,95.66
2019-03-08T01:24:24.504Z,96.13
2019-03-08T01:27:21.209Z,97.07
2019-03-08T01:30:17.926Z,97.35
2019-03-08T01:33:13.340Z,97.48
2019-03-08T01:36:10.109Z,97.79
2019-03-08T01:39:06.884Z,98.08
2019-03-08T01:42:03.590Z,98.56
2019-03-08T01:44:58.877Z,98.97
2019-03-08T01:47:55.325Z,99.34
2019-03-08T01:50:51.218Z,99.50
2019-03-08T01:53:47.769Z,99.37
2019-03-08T01:56:43.299Z,99.26
2019-03-08T01:59:40.019Z,99.52
2019-03-08T02:02:35.530Z,99.68
2019-03-08T02:05:31.002Z,99.61
2019-03-08T02:08:27.101Z,100.00
2019-03-08T02:11:23.817Z,100.00
2019-03-08T02:14:19.471Z,100.00
2019-03-08T02:17:15.999Z,100.00
2019-03-08T02:20:13.557Z,100.00
2019-03-08T02:23:10.168Z,100.00
2019-03-08T02:26:07.999Z,100.00
2019-03-08T02:29:03.449Z,100.00
2019-03-08T02:32:00.322Z,100.00
2019-03-08T02:34:56.012Z,100.00
2019-03-08T02:37:52.726Z,100.00
2019-03-08T02:40:53.787Z,100.00
2019-03-08T02:43:50.272Z,100.00
2019-03-08T02:46:45.799Z,100.00
2019-03-08T02:49:43.338Z,99.89
2019-03-08T02:52:39.622Z,99.27
2019-03-08T02:55:35.293Z,98.14
2019-03-08T02:58:31.998Z,97.29
2019-03-08T03:01:26.429Z,96.05
2019-03-08T03:04:23.203Z,94.56
2019-03-08T03:07:18.908Z,93.49
2019-03-08T03:10:15.753Z,91.94
2019-03-08T03:13:11.221Z,91.30
2019-03-08T03:16:07.819Z,89.93
2019-03-08T03:19:03.287Z,89.48
2019-03-08T03:21:59.545Z,88.86
2019-03-08T03:24:55.288Z,88.18
2019-03-08T03:27:53.019Z,87.66
2019-03-08T03:30:49.519Z,87.66
2019-03-08T03:33:46.247Z,87.50
2019-03-08T03:36:41.747Z,87.39
2019-03-08T03:39:38.403Z,87.22
2019-03-08T03:42:33.717Z,86.73
2019-03-08T03:45:30.138Z,86.58
2019-03-08T03:48:26.786Z,86.88
2019-03-08T03:51:24.461Z,86.69
2019-03-08T03:54:20.263Z,87.03
2019-03-08T03:57:16.954Z,87.03
2019-03-08T04:00:12.438Z,87.21
2019-03-08T04:03:10.096Z,87.04
2019-03-08T04:06:06.536Z,87.31
2019-03-08T04:09:01.872Z,87.34
2019-03-08T04:11:58.375Z,87.38
2019-03-08T04:14:54.081Z,87.32
2019-03-08T04:17:50.463Z,87.35
2019-03-08T04:20:46.072Z,87.54
2019-03-08T04:23:42.785Z,87.63
2019-03-08T04:26:39.712Z,87.76
2019-03-08T04:29:37.214Z,87.60
2019-03-08T04:32:32.671Z,87.68
2019-03-08T04:35:29.083Z,87.64
2019-03-08T04:38:24.640Z,87.85
2019-03-08T04:41:22.149Z,87.80
2019-03-08T04:44:17.330Z,87.80
2019-03-08T04:47:14.048Z,87.65
2019-03-08T04:50:09.057Z,87.29
2019-03-08T04:53:05.515Z,87.11
2019-03-08T04:56:01.001Z,86.92
2019-03-08T04:58:57.730Z,86.97
2019-03-08T05:01:53.154Z,86.77
2019-03-08T05:04:50.688Z,86.90
2019-03-08T05:07:47.079Z,87.09
2019-03-08T05:10:41.336Z,87.29
2019-03-08T05:13:37.276Z,87.22
2019-03-08T05:16:32.799Z,87.22
2019-03-08T05:19:29.454Z,87.51
2019-03-08T05:22:25.989Z,87.71
2019-03-08T05:25:22.586Z,87.76
2019-03-08T05:28:19.691Z,88.00
2019-03-08T05:31:18.307Z,87.90
2019-03-08T05:34:14.042Z,87.97
2019-03-08T05:37:10.454Z,87.75
2019-03-08T05:40:05.931Z,88.00
2019-03-08T05:43:04.104Z,87.93
2019-03-08T05:45:58.611Z,87.74
2019-03-08T05:48:55.097Z,87.80
2019-03-08T05:51:51.328Z,87.54
2019-03-08T05:54:48.071Z,87.50
2019-03-08T05:57:43.800Z,87.36
2019-03-08T06:00:41.930Z,87.07
2019-03-08T06:03:38.141Z,86.71
2019-03-08T06:06:34.421Z,86.78
2019-03-08T06:09:29.885Z,86.58
2019-03-08T06:12:28.365Z,86.13
2019-03-08T06:15:23.828Z,86.28
2019-03-08T06:18:20.326Z,86.42
2019-03-08T06:21:15.783Z,85.95
2019-03-08T06:24:12.519Z,86.00
2019-03-08T06:27:07.275Z,85.54
2019-03-08T06:30:05.044Z,84.99
2019-03-08T06:33:01.845Z,84.77
2019-03-08T06:35:58.371Z,84.40
2019-03-08T06:38:54.110Z,84.22
2019-03-08T06:41:50.619Z,84.16
2019-03-08T06:44:46.130Z,83.49
2019-03-08T06:47:42.777Z,84.00
2019-03-08T06:50:38.289Z,83.91
2019-03-08T06:53:35.853Z,83.63
2019-03-08T06:56:31.601Z,82.92
2019-03-08T06:59:52.151Z,82.86
2019-03-08T07:02:47.710Z,82.48
2019-03-08T07:05:43.550Z,82.04
2019-03-08T07:08:39.031Z,81.85
2019-03-08T07:11:35.534Z,81.83
2019-03-08T07:14:30.999Z,82.04
2019-03-08T07:17:27.650Z,82.16
2019-03-08T07:20:40.583Z,82.50
2019-03-08T07:23:50.508Z,81.77
2019-03-08T07:26:58.464Z,81.60
2019-03-08T07:30:09.176Z,82.35
2019-03-08T07:33:35.501Z,81.76
2019-03-08T07:36:41.278Z,81.33
2019-03-08T07:39:50.384Z,80.70
2019-03-08T07:42:55.347Z,80.82
2019-03-08T07:46:01.974Z,80.86
2019-03-08T07:49:18.016Z,80.76
2019-03-08T07:52:25.459Z,80.85
2019-03-08T07:55:38.936Z,80.36
2019-03-08T07:58:53.569Z,80.35
2019-03-08T08:02:07.024Z,79.25
2019-03-08T08:05:33.504Z,79.71
2019-03-08T08:08:51.718Z,79.80
2019-03-08T08:11:54.047Z,79.54
2019-03-08T08:15:02.826Z,79.46
2019-03-08T08:18:16.788Z,79.08
2019-03-08T08:21:23.808Z,78.48
2019-03-08T08:24:46.917Z,78.74
2019-03-08T08:27:56.467Z,79.34
2019-03-08T08:31:19.938Z,78.51
2019-03-08T08:34:28.156Z,78.31
2019-03-08T08:37:37.205Z,78.49
2019-03-08T08:40:45.330Z,77.89
2019-03-08T08:43:49.446Z,76.79
2019-03-08T08:47:03.298Z,75.94
2019-03-08T08:50:25.473Z,76.50
2019-03-08T08:53:31.512Z,75.39
2019-03-08T08:56:39.025Z,73.71
2019-03-08T08:59:47.036Z,73.57
2019-03-08T09:03:02.547Z,74.50
2019-03-08T09:06:11.551Z,73.02
2019-03-08T09:11:52.314Z,71.48
2019-03-08T09:14:34.360Z,71.69
2019-03-08T09:17:23.476Z,71.05
2019-03-08T09:20:02.907Z,68.84
2019-03-08T09:22:42.997Z,69.63
2019-03-08T09:25:32.283Z,70.32
2019-03-08T09:28:12.826Z,69.54
2019-03-08T09:31:00.091Z,69.91
2019-03-08T09:33:35.427Z,68.02
2019-03-08T09:36:23.170Z,69.76
2019-03-08T09:39:24.431Z,70.27
2019-03-08T09:42:03.482Z,69.38
2019-03-08T09:44:52.622Z,70.31
2019-03-08T09:47:38.069Z,70.86
2019-03-08T09:50:26.001Z,69.75
2019-03-08T09:53:02.039Z,68.35
2019-03-08T09:55:51.119Z,67.59
2019-03-08T09:58:40.365Z,68.20
2019-03-08T10:01:28.111Z,68.15
2019-03-08T10:04:29.342Z,68.15
2019-03-08T10:07:04.641Z,67.92
2019-03-08T10:10:09.825Z,67.38
2019-03-08T10:12:45.716Z,67.90
2019-03-08T10:15:32.415Z,64.96
2019-03-08T10:18:12.282Z,66.16
2019-03-08T10:21:06.441Z,67.15
2019-03-08T10:23:54.098Z,65.83
2019-03-08T10:26:42.808Z,65.37
2019-03-08T10:29:34.218Z,64.28
2019-03-08T10:32:38.176Z,64.83
2019-03-08T10:35:35.399Z,63.80
2019-03-08T10:38:22.401Z,64.27
2019-03-08T10:41:17.246Z,63.02
2019-03-08T10:44:09.147Z,62.53
2019-03-08T10:47:11.763Z,59.79
2019-03-08T10:50:05.980Z,60.25
2019-03-08T10:52:51.234Z,60.39
2019-03-08T10:55:55.729Z,59.61
2019-03-08T10:58:43.381Z,60.39
2019-03-08T11:01:33.384Z,60.60
2019-03-08T11:04:08.719Z,60.99
2019-03-08T11:07:06.872Z,61.05
2019-03-08T11:09:55.970Z,62.29
2019-03-08T11:12:52.055Z,63.48
2019-03-08T11:15:41.301Z,61.77
2019-03-08T11:18:42.672Z,61.78
2019-03-08T11:21:22.345Z,62.01
2019-03-08T11:24:10.240Z,60.35
2019-03-08T11:27:09.055Z,59.72
2019-03-08T11:29:57.120Z,60.23
2019-03-08T11:32:52.282Z,58.36
2019-03-08T11:35:46.328Z,58.35
2019-03-08T11:38:47.616Z,58.10
2019-03-08T11:41:34.653Z,59.15
2019-03-08T11:44:29.740Z,58.02
2019-03-08T11:47:27.803Z,59.11
2019-03-08T11:50:16.067Z,59.50
2019-03-08T11:52:58.115Z,58.51
2019-03-08T11:55:54.001Z,58.42
2019-03-08T11:58:49.859Z,58.08
2019-03-08T12:01:37.740Z,58.87
2019-03-08T12:04:30.008Z,58.85
2019-03-08T12:07:17.693Z,61.89
2019-03-08T12:09:59.476Z,62.20
2019-03-08T12:12:57.454Z,62.45
2019-03-08T12:15:53.618Z,61.33
2019-03-08T12:18:31.758Z,62.33
2019-03-08T12:21:30.022Z,61.89
2019-03-08T12:24:25.891Z,60.81
2019-03-08T12:27:13.632Z,59.36
2019-03-08T12:30:01.375Z,59.48
2019-03-08T12:32:49.929Z,60.49
2019-03-08T12:35:31.043Z,61.10
2019-03-08T12:38:20.215Z,59.28
2019-03-08T12:41:15.554Z,59.89
2019-03-08T12:44:10.541Z,59.30
2019-03-08T12:46:49.911Z,60.44
2019-03-08T12:49:42.238Z,58.59
2019-03-08T12:52:32.091Z,59.15
2019-03-08T12:55:25.475Z,58.99
2019-03-08T12:58:18.049Z,57.92
2019-03-08T13:00:55.408Z,59.06
2019-03-08T13:03:50.995Z,59.44
2019-03-08T13:06:47.679Z,59.10
2019-03-08T13:09:33.002Z,59.70
2019-03-08T13:12:03.299Z,58.98
2019-03-08T13:14:33.567Z,56.89
2019-03-08T13:17:03.752Z,55.23
2019-03-08T13:19:34.039Z,58.27
2019-03-08T13:22:04.274Z,60.43
2019-03-08T13:24:34.512Z,60.85
2019-03-08T13:27:04.782Z,61.33
2019-03-08T13:29:35.144Z,59.69
2019-03-08T13:32:05.423Z,60.29
2019-03-08T13:34:35.733Z,60.93
2019-03-08T13:37:05.923Z,61.54
2019-03-08T13:39:36.373Z,60.33
2019-03-08T13:42:07.473Z,59.24
2019-03-08T13:44:37.796Z,58.34
2019-03-08T13:47:08.208Z,58.93
2019-03-08T13:49:38.394Z,58.30
2019-03-08T13:52:08.561Z,58.82
2019-03-08T13:54:38.760Z,58.22
2019-03-08T13:57:09.017Z,58.78
2019-03-08T13:59:39.485Z,59.35
2019-03-08T14:02:09.722Z,59.01
2019-03-08T14:04:39.840Z,58.40
2019-03-08T14:07:10.094Z,57.63
2019-03-08T14:09:41.041Z,56.72
2019-03-08T14:12:12.115Z,56.89
2019-03-08T14:14:42.384Z,58.36
2019-03-08T14:17:12.518Z,55.62
2019-03-08T14:19:42.815Z,53.45
2019-03-08T14:22:13.038Z,54.04
2019-03-08T14:24:43.196Z,53.31
2019-03-08T14:27:15.469Z,53.09
2019-03-08T14:29:45.654Z,54.46
2019-03-08T14:32:21.245Z,54.24
2019-03-08T14:34:53.724Z,54.17
